sensor_id;sensor_type;location;lat;lon;timestamp;temperature;humidity
831;DHT22;397;50.564;7.272;2022-10-31T00:01:34;12.20;99.90
831;DHT22;397;50.564;7.272;2022-10-31T00:03:57;12.20;99.90
831;DHT22;397;50.564;7.272;2022-10-31T00:06:25;12.10;99.90
831;DHT22;397;50.564;7.272;2022-10-31T00:08:54;12.20;99.90
831;DHT22;397;50.564;7.272;2022-10-31T00:11:22;12.20;99.90
831;DHT22;397;50.564;7.272;2022-10-31T00:13:50;12.20;99.90
831;DHT22;397;50.564;7.272;2022-10-31T00:16:23;12.20;99.90
831;DHT22;397;50.564;7.272;2022-10-31T00:18:52;12.10;99.90
831;DHT22;397;50.564;7.272;2022-10-31T00:21:21;12.10;99.90
831;DHT22;397;50.564;7.272;2022-10-31T00:23:49;12.10;99.90
831;DHT22;397;50.564;7.272;2022-10-31T00:26:16;11.70;99.90
831;DHT22;397;50.564;7.272;2022-10-31T00:28:44;11.70;99.90
831;DHT22;397;50.564;7.272;2022-10-31T00:31:13;11.80;99.90
831;DHT22;397;50.564;7.272;2022-10-31T00:33:41;11.80;99.90
831;DHT22;397;50.564;7.272;2022-10-31T00:36:12;11.80;99.90
831;DHT22;397;50.564;7.272;2022-10-31T00:38:40;11.90;99.90
831;DHT22;397;50.564;7.272;2022-10-31T00:41:07;11.90;99.90
831;DHT22;397;50.564;7.272;2022-10-31T00:43:35;12.00;99.90
831;DHT22;397;50.564;7.272;2022-10-31T00:46:02;11.90;99.90
831;DHT22;397;50.564;7.272;2022-10-31T00:48:30;11.80;99.90
831;DHT22;397;50.564;7.272;2022-10-31T00:50:58;11.90;99.90
831;DHT22;397;50.564;7.272;2022-10-31T00:53:25;11.90;99.90
831;DHT22;397;50.564;7.272;2022-10-31T00:55:53;11.80;99.90
831;DHT22;397;50.564;7.272;2022-10-31T00:58:20;11.80;99.90
831;DHT22;397;50.564;7.272;2022-10-31T01:00:48;11.90;99.90
831;DHT22;397;50.564;7.272;2022-10-31T01:03:23;11.90;99.90
831;DHT22;397;50.564;7.272;2022-10-31T01:05:58;12.00;99.90
831;DHT22;397;50.564;7.272;2022-10-31T01:08:26;11.90;99.90
831;DHT22;397;50.564;7.272;2022-10-31T01:11:15;12.00;99.90
831;DHT22;397;50.564;7.272;2022-10-31T01:13:43;12.00;99.90
831;DHT22;397;50.564;7.272;2022-10-31T01:16:13;11.90;99.90
831;DHT22;397;50.564;7.272;2022-10-31T01:18:41;11.80;99.90
831;DHT22;397;50.564;7.272;2022-10-31T01:21:11;11.80;99.90
831;DHT22;397;50.564;7.272;2022-10-31T01:23:39;11.70;99.90
831;DHT22;397;50.564;7.272;2022-10-31T01:26:09;11.70;99.90
831;DHT22;397;50.564;7.272;2022-10-31T01:28:38;11.80;99.90
831;DHT22;397;50.564;7.272;2022-10-31T01:31:08;11.80;99.90
831;DHT22;397;50.564;7.272;2022-10-31T01:33:36;11.80;99.90
831;DHT22;397;50.564;7.272;2022-10-31T01:36:18;11.90;99.90
831;DHT22;397;50.564;7.272;2022-10-31T01:38:47;12.00;99.90
831;DHT22;397;50.564;7.272;2022-10-31T01:41:22;11.90;99.90
831;DHT22;397;50.564;7.272;2022-10-31T01:43:48;12.00;99.90
831;DHT22;397;50.564;7.272;2022-10-31T01:46:22;12.00;99.90
831;DHT22;397;50.564;7.272;2022-10-31T01:48:47;11.80;99.90
831;DHT22;397;50.564;7.272;2022-10-31T01:51:15;11.80;99.90
831;DHT22;397;50.564;7.272;2022-10-31T01:53:45;11.90;99.90
831;DHT22;397;50.564;7.272;2022-10-31T01:56:14;11.80;99.90
831;DHT22;397;50.564;7.272;2022-10-31T01:58:43;11.80;99.90
831;DHT22;397;50.564;7.272;2022-10-31T02:01:13;11.90;99.90
831;DHT22;397;50.564;7.272;2022-10-31T02:03:42;11.80;99.90
831;DHT22;397;50.564;7.272;2022-10-31T02:06:13;11.70;99.90
831;DHT22;397;50.564;7.272;2022-10-31T02:08:40;11.80;99.90
831;DHT22;397;50.564;7.272;2022-10-31T02:11:09;11.60;99.90
831;DHT22;397;50.564;7.272;2022-10-31T02:13:37;11.60;99.90
831;DHT22;397;50.564;7.272;2022-10-31T02:16:05;11.50;99.90
831;DHT22;397;50.564;7.272;2022-10-31T02:18:33;11.40;99.90
831;DHT22;397;50.564;7.272;2022-10-31T02:21:15;11.40;99.90
831;DHT22;397;50.564;7.272;2022-10-31T02:24:00;11.30;99.90
831;DHT22;397;50.564;7.272;2022-10-31T02:26:49;11.40;99.90
831;DHT22;397;50.564;7.272;2022-10-31T02:32:13;11.50;99.90
831;DHT22;397;50.564;7.272;2022-10-31T02:34:35;11.60;99.90
831;DHT22;397;50.564;7.272;2022-10-31T02:37:19;11.50;99.90
831;DHT22;397;50.564;7.272;2022-10-31T02:40:07;11.60;99.90
831;DHT22;397;50.564;7.272;2022-10-31T02:42:40;11.50;99.90
831;DHT22;397;50.564;7.272;2022-10-31T02:45:08;11.50;99.90
831;DHT22;397;50.564;7.272;2022-10-31T02:47:36;11.60;99.90
831;DHT22;397;50.564;7.272;2022-10-31T02:52:53;11.50;99.90
831;DHT22;397;50.564;7.272;2022-10-31T02:57:56;11.50;99.90
831;DHT22;397;50.564;7.272;2022-10-31T03:00:25;11.50;99.90
831;DHT22;397;50.564;7.272;2022-10-31T03:08:29;11.40;99.90
831;DHT22;397;50.564;7.272;2022-10-31T03:11:05;11.50;99.90
831;DHT22;397;50.564;7.272;2022-10-31T03:13:46;11.50;99.90
831;DHT22;397;50.564;7.272;2022-10-31T03:16:22;11.50;99.90
831;DHT22;397;50.564;7.272;2022-10-31T03:21:35;11.40;99.90
831;DHT22;397;50.564;7.272;2022-10-31T03:24:02;11.40;99.90
831;DHT22;397;50.564;7.272;2022-10-31T03:26:31;11.40;99.90
831;DHT22;397;50.564;7.272;2022-10-31T03:29:07;11.40;99.90
831;DHT22;397;50.564;7.272;2022-10-31T03:31:39;11.40;99.90
831;DHT22;397;50.564;7.272;2022-10-31T03:34:08;11.50;99.90
831;DHT22;397;50.564;7.272;2022-10-31T03:36:38;11.40;99.90
831;DHT22;397;50.564;7.272;2022-10-31T03:39:09;11.30;99.90
831;DHT22;397;50.564;7.272;2022-10-31T03:41:41;11.30;99.90
831;DHT22;397;50.564;7.272;2022-10-31T03:44:10;11.20;99.90
831;DHT22;397;50.564;7.272;2022-10-31T03:46:39;11.30;99.90
831;DHT22;397;50.564;7.272;2022-10-31T03:49:07;11.20;99.90
831;DHT22;397;50.564;7.272;2022-10-31T03:51:43;11.20;99.90
831;DHT22;397;50.564;7.272;2022-10-31T03:54:24;11.20;99.90
831;DHT22;397;50.564;7.272;2022-10-31T03:56:50;11.20;99.90
831;DHT22;397;50.564;7.272;2022-10-31T03:59:24;11.20;99.90
831;DHT22;397;50.564;7.272;2022-10-31T04:01:55;11.10;99.90
831;DHT22;397;50.564;7.272;2022-10-31T04:04:22;11.10;99.90
831;DHT22;397;50.564;7.272;2022-10-31T04:06:50;11.00;99.90
831;DHT22;397;50.564;7.272;2022-10-31T04:09:20;11.00;99.90
831;DHT22;397;50.564;7.272;2022-10-31T04:11:50;11.00;99.90
831;DHT22;397;50.564;7.272;2022-10-31T04:14:18;11.00;99.90
831;DHT22;397;50.564;7.272;2022-10-31T04:16:47;10.90;99.90
831;DHT22;397;50.564;7.272;2022-10-31T04:19:15;10.90;99.90
831;DHT22;397;50.564;7.272;2022-10-31T04:21:43;11.00;99.90
831;DHT22;397;50.564;7.272;2022-10-31T04:24:10;11.00;99.90
831;DHT22;397;50.564;7.272;2022-10-31T04:26:38;11.00;99.90
831;DHT22;397;50.564;7.272;2022-10-31T04:29:06;10.90;99.90
831;DHT22;397;50.564;7.272;2022-10-31T04:31:33;10.90;99.90
831;DHT22;397;50.564;7.272;2022-10-31T04:34:01;10.90;99.90
831;DHT22;397;50.564;7.272;2022-10-31T04:36:28;11.00;99.90
831;DHT22;397;50.564;7.272;2022-10-31T04:38:56;10.90;99.90
831;DHT22;397;50.564;7.272;2022-10-31T04:41:23;11.00;99.90
831;DHT22;397;50.564;7.272;2022-10-31T04:43:51;10.90;99.90
831;DHT22;397;50.564;7.272;2022-10-31T04:46:18;10.60;99.90
831;DHT22;397;50.564;7.272;2022-10-31T04:48:46;10.70;99.90
831;DHT22;397;50.564;7.272;2022-10-31T04:51:13;10.70;99.90
831;DHT22;397;50.564;7.272;2022-10-31T04:53:41;10.80;99.90
831;DHT22;397;50.564;7.272;2022-10-31T04:56:08;10.80;99.90
831;DHT22;397;50.564;7.272;2022-10-31T04:58:36;10.80;99.90
831;DHT22;397;50.564;7.272;2022-10-31T05:01:03;10.80;99.90
831;DHT22;397;50.564;7.272;2022-10-31T05:03:31;10.90;99.90
831;DHT22;397;50.564;7.272;2022-10-31T05:05:58;10.90;99.90
831;DHT22;397;50.564;7.272;2022-10-31T05:08:26;10.90;99.90
831;DHT22;397;50.564;7.272;2022-10-31T05:10:53;10.90;99.90
831;DHT22;397;50.564;7.272;2022-10-31T05:13:21;11.00;99.90
831;DHT22;397;50.564;7.272;2022-10-31T05:15:49;11.00;99.90
831;DHT22;397;50.564;7.272;2022-10-31T05:18:17;11.00;99.90
831;DHT22;397;50.564;7.272;2022-10-31T05:20:44;11.00;99.90
831;DHT22;397;50.564;7.272;2022-10-31T05:23:12;11.00;99.90
831;DHT22;397;50.564;7.272;2022-10-31T05:25:40;11.00;99.90
831;DHT22;397;50.564;7.272;2022-10-31T05:28:08;11.00;99.90
831;DHT22;397;50.564;7.272;2022-10-31T05:30:35;11.00;99.90
831;DHT22;397;50.564;7.272;2022-10-31T05:33:03;11.00;99.90
831;DHT22;397;50.564;7.272;2022-10-31T05:35:32;10.90;99.90
831;DHT22;397;50.564;7.272;2022-10-31T05:38:00;11.00;99.90
831;DHT22;397;50.564;7.272;2022-10-31T05:40:28;11.00;99.90
831;DHT22;397;50.564;7.272;2022-10-31T05:42:57;11.00;99.90
831;DHT22;397;50.564;7.272;2022-10-31T05:45:26;11.10;99.90
831;DHT22;397;50.564;7.272;2022-10-31T05:47:55;11.10;99.90
831;DHT22;397;50.564;7.272;2022-10-31T05:50:24;11.20;99.90
831;DHT22;397;50.564;7.272;2022-10-31T05:52:57;11.10;99.90
831;DHT22;397;50.564;7.272;2022-10-31T05:55:25;11.20;99.90
831;DHT22;397;50.564;7.272;2022-10-31T05:57:53;11.20;99.90
831;DHT22;397;50.564;7.272;2022-10-31T06:00:22;11.30;99.90
831;DHT22;397;50.564;7.272;2022-10-31T06:02:57;11.30;99.90
831;DHT22;397;50.564;7.272;2022-10-31T06:05:19;11.30;99.90
831;DHT22;397;50.564;7.272;2022-10-31T06:07:46;11.40;99.90
831;DHT22;397;50.564;7.272;2022-10-31T06:10:14;11.40;99.90
831;DHT22;397;50.564;7.272;2022-10-31T06:12:42;11.20;99.90
831;DHT22;397;50.564;7.272;2022-10-31T06:15:11;11.30;99.90
831;DHT22;397;50.564;7.272;2022-10-31T06:17:38;11.40;99.90
831;DHT22;397;50.564;7.272;2022-10-31T06:20:07;11.40;99.90
831;DHT22;397;50.564;7.272;2022-10-31T06:22:35;11.40;99.90
831;DHT22;397;50.564;7.272;2022-10-31T06:25:02;11.40;99.90
831;DHT22;397;50.564;7.272;2022-10-31T06:27:30;11.50;99.90
831;DHT22;397;50.564;7.272;2022-10-31T06:29:57;11.60;99.90
831;DHT22;397;50.564;7.272;2022-10-31T06:32:25;11.60;99.90
831;DHT22;397;50.564;7.272;2022-10-31T06:34:52;11.50;99.90
831;DHT22;397;50.564;7.272;2022-10-31T06:37:20;11.60;99.90
831;DHT22;397;50.564;7.272;2022-10-31T06:39:47;11.70;99.90
831;DHT22;397;50.564;7.272;2022-10-31T06:42:16;11.70;99.90
831;DHT22;397;50.564;7.272;2022-10-31T06:44:43;11.70;99.90
831;DHT22;397;50.564;7.272;2022-10-31T06:47:11;11.80;99.90
831;DHT22;397;50.564;7.272;2022-10-31T06:49:38;11.90;99.90
831;DHT22;397;50.564;7.272;2022-10-31T06:52:06;11.90;99.90
831;DHT22;397;50.564;7.272;2022-10-31T06:54:33;11.90;99.90
831;DHT22;397;50.564;7.272;2022-10-31T06:57:01;11.90;99.90
831;DHT22;397;50.564;7.272;2022-10-31T06:59:28;11.90;99.90
831;DHT22;397;50.564;7.272;2022-10-31T07:01:57;12.00;99.90
831;DHT22;397;50.564;7.272;2022-10-31T07:04:25;12.00;99.90
831;DHT22;397;50.564;7.272;2022-10-31T07:06:52;12.00;99.90
831;DHT22;397;50.564;7.272;2022-10-31T07:09:20;12.10;99.90
831;DHT22;397;50.564;7.272;2022-10-31T07:11:47;12.10;99.90
831;DHT22;397;50.564;7.272;2022-10-31T07:14:15;12.20;99.90
831;DHT22;397;50.564;7.272;2022-10-31T07:16:42;12.20;99.90
831;DHT22;397;50.564;7.272;2022-10-31T07:19:10;12.20;99.90
831;DHT22;397;50.564;7.272;2022-10-31T07:21:37;12.30;99.90
831;DHT22;397;50.564;7.272;2022-10-31T07:24:05;12.30;99.90
831;DHT22;397;50.564;7.272;2022-10-31T07:26:33;12.40;99.90
831;DHT22;397;50.564;7.272;2022-10-31T07:29:00;12.50;99.90
831;DHT22;397;50.564;7.272;2022-10-31T07:31:28;12.50;99.90
831;DHT22;397;50.564;7.272;2022-10-31T07:33:55;12.50;99.90
831;DHT22;397;50.564;7.272;2022-10-31T07:36:23;12.70;99.90
831;DHT22;397;50.564;7.272;2022-10-31T07:38:50;12.70;99.90
831;DHT22;397;50.564;7.272;2022-10-31T07:41:18;12.80;99.90
831;DHT22;397;50.564;7.272;2022-10-31T07:43:45;12.90;99.90
831;DHT22;397;50.564;7.272;2022-10-31T07:46:13;12.80;99.90
831;DHT22;397;50.564;7.272;2022-10-31T07:48:40;12.90;99.90
831;DHT22;397;50.564;7.272;2022-10-31T07:51:08;12.90;99.90
831;DHT22;397;50.564;7.272;2022-10-31T07:53:35;13.00;99.90
831;DHT22;397;50.564;7.272;2022-10-31T07:56:03;12.90;99.90
831;DHT22;397;50.564;7.272;2022-10-31T07:58:30;13.00;99.90
831;DHT22;397;50.564;7.272;2022-10-31T08:00:58;12.80;99.90
831;DHT22;397;50.564;7.272;2022-10-31T08:03:25;12.90;99.90
831;DHT22;397;50.564;7.272;2022-10-31T08:05:53;12.90;99.90
831;DHT22;397;50.564;7.272;2022-10-31T08:08:20;12.90;99.90
831;DHT22;397;50.564;7.272;2022-10-31T08:10:48;13.10;99.90
831;DHT22;397;50.564;7.272;2022-10-31T08:13:15;13.20;99.90
831;DHT22;397;50.564;7.272;2022-10-31T08:15:43;13.20;99.90
831;DHT22;397;50.564;7.272;2022-10-31T08:18:14;13.20;99.90
831;DHT22;397;50.564;7.272;2022-10-31T08:20:43;13.10;99.90
831;DHT22;397;50.564;7.272;2022-10-31T08:23:11;13.10;99.90
831;DHT22;397;50.564;7.272;2022-10-31T08:25:40;13.20;99.90
831;DHT22;397;50.564;7.272;2022-10-31T08:28:10;13.40;99.90
831;DHT22;397;50.564;7.272;2022-10-31T08:30:38;13.40;99.90
831;DHT22;397;50.564;7.272;2022-10-31T08:33:15;13.40;99.90
831;DHT22;397;50.564;7.272;2022-10-31T08:35:43;13.50;99.90
831;DHT22;397;50.564;7.272;2022-10-31T08:38:12;13.40;99.90
831;DHT22;397;50.564;7.272;2022-10-31T08:40:40;13.50;99.90
831;DHT22;397;50.564;7.272;2022-10-31T08:43:13;13.40;99.90
831;DHT22;397;50.564;7.272;2022-10-31T08:45:41;13.40;99.90
831;DHT22;397;50.564;7.272;2022-10-31T08:48:16;13.60;99.90
831;DHT22;397;50.564;7.272;2022-10-31T08:50:40;13.70;99.90
831;DHT22;397;50.564;7.272;2022-10-31T08:53:11;13.80;99.90
831;DHT22;397;50.564;7.272;2022-10-31T08:55:39;13.80;99.90
831;DHT22;397;50.564;7.272;2022-10-31T08:58:16;13.90;99.90
831;DHT22;397;50.564;7.272;2022-10-31T09:00:40;14.00;99.90
831;DHT22;397;50.564;7.272;2022-10-31T09:03:10;14.00;99.90
831;DHT22;397;50.564;7.272;2022-10-31T09:05:38;14.10;99.90
831;DHT22;397;50.564;7.272;2022-10-31T09:08:06;13.90;99.90
831;DHT22;397;50.564;7.272;2022-10-31T09:10:36;14.00;99.90
831;DHT22;397;50.564;7.272;2022-10-31T09:13:06;14.10;99.90
831;DHT22;397;50.564;7.272;2022-10-31T09:15:38;14.10;99.90
831;DHT22;397;50.564;7.272;2022-10-31T09:18:06;14.00;99.90
831;DHT22;397;50.564;7.272;2022-10-31T09:20:35;14.00;99.90
831;DHT22;397;50.564;7.272;2022-10-31T09:23:20;14.10;99.90
831;DHT22;397;50.564;7.272;2022-10-31T09:25:47;14.20;99.90
831;DHT22;397;50.564;7.272;2022-10-31T09:28:17;14.20;99.90
831;DHT22;397;50.564;7.272;2022-10-31T09:30:51;14.10;99.90
831;DHT22;397;50.564;7.272;2022-10-31T09:33:19;14.00;99.90
831;DHT22;397;50.564;7.272;2022-10-31T09:35:47;14.10;99.90
831;DHT22;397;50.564;7.272;2022-10-31T09:38:20;14.10;99.90
831;DHT22;397;50.564;7.272;2022-10-31T09:43:46;14.30;99.90
831;DHT22;397;50.564;7.272;2022-10-31T09:46:15;14.40;99.90
831;DHT22;397;50.564;7.272;2022-10-31T09:49:05;14.40;99.90
831;DHT22;397;50.564;7.272;2022-10-31T09:51:40;14.60;99.90
831;DHT22;397;50.564;7.272;2022-10-31T09:54:27;14.60;99.90
831;DHT22;397;50.564;7.272;2022-10-31T09:56:56;14.50;99.90
831;DHT22;397;50.564;7.272;2022-10-31T09:59:38;14.30;99.90
831;DHT22;397;50.564;7.272;2022-10-31T10:02:13;14.50;99.90
831;DHT22;397;50.564;7.272;2022-10-31T10:04:48;14.70;99.90
831;DHT22;397;50.564;7.272;2022-10-31T10:10:12;14.60;99.90
831;DHT22;397;50.564;7.272;2022-10-31T10:12:45;14.70;99.90
831;DHT22;397;50.564;7.272;2022-10-31T10:15:31;14.60;99.90
831;DHT22;397;50.564;7.272;2022-10-31T10:18:19;14.60;99.90
831;DHT22;397;50.564;7.272;2022-10-31T10:21:09;14.70;99.90
831;DHT22;397;50.564;7.272;2022-10-31T10:23:51;14.70;99.90
831;DHT22;397;50.564;7.272;2022-10-31T10:26:25;14.90;99.90
831;DHT22;397;50.564;7.272;2022-10-31T10:29:01;15.00;99.90
831;DHT22;397;50.564;7.272;2022-10-31T10:31:32;15.10;99.90
831;DHT22;397;50.564;7.272;2022-10-31T10:34:16;15.20;99.90
831;DHT22;397;50.564;7.272;2022-10-31T10:36:47;15.30;99.90
831;DHT22;397;50.564;7.272;2022-10-31T10:39:36;15.30;99.90
831;DHT22;397;50.564;7.272;2022-10-31T10:42:00;15.20;99.90
831;DHT22;397;50.564;7.272;2022-10-31T10:44:48;15.30;99.90
831;DHT22;397;50.564;7.272;2022-10-31T10:47:42;15.30;99.90
831;DHT22;397;50.564;7.272;2022-10-31T10:50:32;15.30;99.90
831;DHT22;397;50.564;7.272;2022-10-31T10:53:17;15.30;99.90
831;DHT22;397;50.564;7.272;2022-10-31T10:55:58;15.40;99.90
831;DHT22;397;50.564;7.272;2022-10-31T10:58:25;15.50;99.90
831;DHT22;397;50.564;7.272;2022-10-31T11:00:53;15.40;99.90
831;DHT22;397;50.564;7.272;2022-10-31T11:03:22;15.50;99.90
831;DHT22;397;50.564;7.272;2022-10-31T11:05:55;15.50;99.90
831;DHT22;397;50.564;7.272;2022-10-31T11:08:30;15.50;99.90
831;DHT22;397;50.564;7.272;2022-10-31T11:13:49;15.50;99.90
831;DHT22;397;50.564;7.272;2022-10-31T11:16:32;15.50;99.90
831;DHT22;397;50.564;7.272;2022-10-31T11:19:23;15.60;99.90
831;DHT22;397;50.564;7.272;2022-10-31T11:21:47;15.60;99.90
831;DHT22;397;50.564;7.272;2022-10-31T11:24:17;15.60;99.90
831;DHT22;397;50.564;7.272;2022-10-31T11:26:47;15.70;99.90
831;DHT22;397;50.564;7.272;2022-10-31T11:29:23;15.70;99.90
831;DHT22;397;50.564;7.272;2022-10-31T11:31:55;15.80;99.90
831;DHT22;397;50.564;7.272;2022-10-31T11:37:15;15.80;99.90
831;DHT22;397;50.564;7.272;2022-10-31T11:39:38;15.80;99.90
831;DHT22;397;50.564;7.272;2022-10-31T11:42:04;15.90;99.90
831;DHT22;397;50.564;7.272;2022-10-31T11:44:31;15.90;99.90
831;DHT22;397;50.564;7.272;2022-10-31T11:47:03;15.90;99.90
831;DHT22;397;50.564;7.272;2022-10-31T11:49:41;16.00;99.90
831;DHT22;397;50.564;7.272;2022-10-31T11:52:14;16.00;99.90
831;DHT22;397;50.564;7.272;2022-10-31T11:54:47;16.10;99.90
831;DHT22;397;50.564;7.272;2022-10-31T11:57:48;16.10;99.90
831;DHT22;397;50.564;7.272;2022-10-31T12:00:32;16.10;99.90
831;DHT22;397;50.564;7.272;2022-10-31T12:03:11;16.10;99.90
831;DHT22;397;50.564;7.272;2022-10-31T12:05:39;16.20;99.90
831;DHT22;397;50.564;7.272;2022-10-31T12:08:10;16.20;99.90
831;DHT22;397;50.564;7.272;2022-10-31T12:10:58;16.30;99.90
831;DHT22;397;50.564;7.272;2022-10-31T12:13:45;16.30;99.90
831;DHT22;397;50.564;7.272;2022-10-31T12:16:16;16.30;99.90
831;DHT22;397;50.564;7.272;2022-10-31T12:21:45;16.50;99.90
831;DHT22;397;50.564;7.272;2022-10-31T12:27:29;16.50;99.90
831;DHT22;397;50.564;7.272;2022-10-31T12:33:09;16.60;99.90
831;DHT22;397;50.564;7.272;2022-10-31T12:57:52;16.90;99.90
831;DHT22;397;50.564;7.272;2022-10-31T13:00:20;16.80;99.90
831;DHT22;397;50.564;7.272;2022-10-31T13:02:56;16.80;99.90
831;DHT22;397;50.564;7.272;2022-10-31T13:05:32;16.80;99.90
831;DHT22;397;50.564;7.272;2022-10-31T13:13:26;16.90;99.90
831;DHT22;397;50.564;7.272;2022-10-31T13:15:56;16.80;99.90
831;DHT22;397;50.564;7.272;2022-10-31T13:18:51;16.80;99.90
831;DHT22;397;50.564;7.272;2022-10-31T13:21:23;16.80;99.90
831;DHT22;397;50.564;7.272;2022-10-31T13:23:51;16.80;99.90
831;DHT22;397;50.564;7.272;2022-10-31T13:26:22;16.90;99.90
831;DHT22;397;50.564;7.272;2022-10-31T13:29:20;17.00;99.90
831;DHT22;397;50.564;7.272;2022-10-31T13:31:47;17.00;99.90
831;DHT22;397;50.564;7.272;2022-10-31T13:34:36;17.00;99.90
831;DHT22;397;50.564;7.272;2022-10-31T13:45:28;16.90;99.90
831;DHT22;397;50.564;7.272;2022-10-31T13:47:58;17.00;99.90
831;DHT22;397;50.564;7.272;2022-10-31T13:50:32;16.90;99.90
831;DHT22;397;50.564;7.272;2022-10-31T13:55:49;16.80;99.90
831;DHT22;397;50.564;7.272;2022-10-31T13:58:26;16.90;99.90
831;DHT22;397;50.564;7.272;2022-10-31T14:03:40;16.90;99.90
831;DHT22;397;50.564;7.272;2022-10-31T14:06:10;16.90;99.90
831;DHT22;397;50.564;7.272;2022-10-31T14:08:40;16.90;99.90
831;DHT22;397;50.564;7.272;2022-10-31T14:11:16;16.90;99.90
831;DHT22;397;50.564;7.272;2022-10-31T14:13:42;16.90;99.90
831;DHT22;397;50.564;7.272;2022-10-31T14:16:23;17.00;99.90
831;DHT22;397;50.564;7.272;2022-10-31T14:18:51;17.00;99.90
831;DHT22;397;50.564;7.272;2022-10-31T14:23:55;17.10;99.90
831;DHT22;397;50.564;7.272;2022-10-31T14:26:31;17.20;99.90
831;DHT22;397;50.564;7.272;2022-10-31T14:34:39;17.40;99.90
831;DHT22;397;50.564;7.272;2022-10-31T14:44:59;17.60;99.90
831;DHT22;397;50.564;7.272;2022-10-31T14:53:05;17.60;99.90
831;DHT22;397;50.564;7.272;2022-10-31T14:55:33;17.60;99.90
831;DHT22;397;50.564;7.272;2022-10-31T14:58:04;17.60;99.90
831;DHT22;397;50.564;7.272;2022-10-31T15:00:32;17.60;99.90
831;DHT22;397;50.564;7.272;2022-10-31T15:03:15;17.50;99.90
831;DHT22;397;50.564;7.272;2022-10-31T15:06:14;17.50;99.90
831;DHT22;397;50.564;7.272;2022-10-31T15:08:48;17.40;99.90
831;DHT22;397;50.564;7.272;2022-10-31T15:11:18;17.40;99.90
831;DHT22;397;50.564;7.272;2022-10-31T15:13:57;17.30;99.90
831;DHT22;397;50.564;7.272;2022-10-31T15:16:36;17.20;99.90
831;DHT22;397;50.564;7.272;2022-10-31T15:19:07;17.20;99.90
831;DHT22;397;50.564;7.272;2022-10-31T15:21:39;17.10;99.90
831;DHT22;397;50.564;7.272;2022-10-31T15:24:10;17.10;99.90
831;DHT22;397;50.564;7.272;2022-10-31T15:26:39;17.00;99.90
831;DHT22;397;50.564;7.272;2022-10-31T15:29:15;17.00;99.90
831;DHT22;397;50.564;7.272;2022-10-31T15:31:54;16.90;99.90
831;DHT22;397;50.564;7.272;2022-10-31T15:34:33;16.80;99.90
831;DHT22;397;50.564;7.272;2022-10-31T15:36:58;16.90;99.90
831;DHT22;397;50.564;7.272;2022-10-31T15:39:26;16.90;99.90
831;DHT22;397;50.564;7.272;2022-10-31T15:41:56;16.80;99.90
831;DHT22;397;50.564;7.272;2022-10-31T15:44:39;16.70;99.90
831;DHT22;397;50.564;7.272;2022-10-31T15:47:20;16.60;99.90
831;DHT22;397;50.564;7.272;2022-10-31T15:49:55;16.60;99.90
831;DHT22;397;50.564;7.272;2022-10-31T15:52:36;16.40;99.90
831;DHT22;397;50.564;7.272;2022-10-31T15:55:28;16.40;99.90
831;DHT22;397;50.564;7.272;2022-10-31T15:57:39;16.40;99.90
831;DHT22;397;50.564;7.272;2022-10-31T16:00:29;16.30;99.90
831;DHT22;397;50.564;7.272;2022-10-31T16:05:50;16.20;99.90
831;DHT22;397;50.564;7.272;2022-10-31T16:08:33;16.10;99.90
831;DHT22;397;50.564;7.272;2022-10-31T16:13:54;15.90;99.90
831;DHT22;397;50.564;7.272;2022-10-31T16:16:22;15.80;99.90
831;DHT22;397;50.564;7.272;2022-10-31T16:18:52;15.80;99.90
831;DHT22;397;50.564;7.272;2022-10-31T16:21:30;15.70;99.90
831;DHT22;397;50.564;7.272;2022-10-31T16:24:02;15.80;99.90
831;DHT22;397;50.564;7.272;2022-10-31T16:26:25;15.80;99.90
831;DHT22;397;50.564;7.272;2022-10-31T16:28:55;15.80;99.90
831;DHT22;397;50.564;7.272;2022-10-31T16:31:29;15.80;99.90
831;DHT22;397;50.564;7.272;2022-10-31T16:34:19;15.70;99.90
831;DHT22;397;50.564;7.272;2022-10-31T16:36:46;15.70;99.90
831;DHT22;397;50.564;7.272;2022-10-31T16:39:14;15.60;99.90
831;DHT22;397;50.564;7.272;2022-10-31T16:41:46;15.60;99.90
831;DHT22;397;50.564;7.272;2022-10-31T16:44:25;15.60;99.90
831;DHT22;397;50.564;7.272;2022-10-31T16:47:15;15.50;99.90
831;DHT22;397;50.564;7.272;2022-10-31T16:49:46;15.40;99.90
831;DHT22;397;50.564;7.272;2022-10-31T16:52:13;15.40;99.90
831;DHT22;397;50.564;7.272;2022-10-31T16:54:40;15.30;99.90
831;DHT22;397;50.564;7.272;2022-10-31T16:57:20;15.20;99.90
831;DHT22;397;50.564;7.272;2022-10-31T16:59:38;15.10;99.90
831;DHT22;397;50.564;7.272;2022-10-31T17:02:10;15.10;99.90
831;DHT22;397;50.564;7.272;2022-10-31T17:04:36;15.00;99.90
831;DHT22;397;50.564;7.272;2022-10-31T17:07:04;14.90;99.90
831;DHT22;397;50.564;7.272;2022-10-31T17:09:31;14.90;99.90
831;DHT22;397;50.564;7.272;2022-10-31T17:11:59;14.90;99.90
831;DHT22;397;50.564;7.272;2022-10-31T17:14:47;14.90;99.90
831;DHT22;397;50.564;7.272;2022-10-31T17:17:15;14.80;99.90
831;DHT22;397;50.564;7.272;2022-10-31T17:19:42;14.80;99.90
831;DHT22;397;50.564;7.272;2022-10-31T17:22:12;14.80;99.90
831;DHT22;397;50.564;7.272;2022-10-31T17:24:40;14.70;99.90
831;DHT22;397;50.564;7.272;2022-10-31T17:27:07;14.60;99.90
831;DHT22;397;50.564;7.272;2022-10-31T17:29:35;14.60;99.90
831;DHT22;397;50.564;7.272;2022-10-31T17:32:03;14.50;99.90
831;DHT22;397;50.564;7.272;2022-10-31T17:34:30;14.50;99.90
831;DHT22;397;50.564;7.272;2022-10-31T17:36:58;14.50;99.90
831;DHT22;397;50.564;7.272;2022-10-31T17:39:25;14.50;99.90
831;DHT22;397;50.564;7.272;2022-10-31T17:41:53;14.50;99.90
831;DHT22;397;50.564;7.272;2022-10-31T17:44:20;14.40;99.90
831;DHT22;397;50.564;7.272;2022-10-31T17:46:48;14.30;99.90
831;DHT22;397;50.564;7.272;2022-10-31T17:49:15;14.30;99.90
831;DHT22;397;50.564;7.272;2022-10-31T17:51:43;14.30;99.90
831;DHT22;397;50.564;7.272;2022-10-31T17:54:10;14.30;99.90
831;DHT22;397;50.564;7.272;2022-10-31T17:56:38;14.20;99.90
831;DHT22;397;50.564;7.272;2022-10-31T17:59:05;14.20;99.90
831;DHT22;397;50.564;7.272;2022-10-31T18:01:33;14.10;99.90
831;DHT22;397;50.564;7.272;2022-10-31T18:04:00;14.10;99.90
831;DHT22;397;50.564;7.272;2022-10-31T18:06:28;14.00;99.90
831;DHT22;397;50.564;7.272;2022-10-31T18:08:55;14.10;99.90
831;DHT22;397;50.564;7.272;2022-10-31T18:11:23;14.10;99.90
831;DHT22;397;50.564;7.272;2022-10-31T18:13:55;14.00;99.90
831;DHT22;397;50.564;7.272;2022-10-31T18:16:24;14.00;99.90
831;DHT22;397;50.564;7.272;2022-10-31T18:18:53;14.00;99.90
831;DHT22;397;50.564;7.272;2022-10-31T18:21:21;13.90;99.90
831;DHT22;397;50.564;7.272;2022-10-31T18:23:54;13.80;99.90
831;DHT22;397;50.564;7.272;2022-10-31T18:26:22;13.80;99.90
831;DHT22;397;50.564;7.272;2022-10-31T18:28:50;13.70;99.90
831;DHT22;397;50.564;7.272;2022-10-31T18:31:18;13.80;99.90
831;DHT22;397;50.564;7.272;2022-10-31T18:33:46;13.80;99.90
831;DHT22;397;50.564;7.272;2022-10-31T18:36:13;13.80;99.90
831;DHT22;397;50.564;7.272;2022-10-31T18:38:42;13.70;99.90
831;DHT22;397;50.564;7.272;2022-10-31T18:41:13;13.70;99.90
831;DHT22;397;50.564;7.272;2022-10-31T18:43:41;13.70;99.90
831;DHT22;397;50.564;7.272;2022-10-31T18:46:13;13.70;99.90